Time;durP1;ratioP1;P1;durP2;ratioP2;P2;SDS_P1;SDS_P2;PMS_P1;PMS_P2;Temp;Humidity;BMP_temperature;BMP_pressure;BME280_temperature;BME280_humidity;BME280_pressure;Samples;Min_cycle;Max_cycle;Signal;HPM_P1;HPM_P2
2023/03/08 00:01:29;;;;;;;3.70;2.90;;;0.50;99.90;;;;;;8370130;28;20189;-69
2023/03/08 00:05:30;;;;;;;3.03;2.30;;;0.40;99.90;;;;;;8364847;28;20186;-71
2023/03/08 00:09:31;;;;;;;3.97;2.67;;;0.30;99.90;;;;;;8373799;28;20209;-70
2023/03/08 00:13:32;;;;;;;4.00;2.83;;;0.30;99.90;;;;;;8366144;28;20181;-70
2023/03/08 00:17:36;;;;;;;4.30;2.57;;;0.30;99.90;;;;;;8369302;28;20205;-70
2023/03/08 00:21:37;;;;;;;3.50;2.47;;;0.20;1.00;;;;;;8368458;28;20231;-71
2023/03/08 00:25:38;;;;;;;4.05;2.30;;;0.20;99.90;;;;;;8366447;28;20304;-71
2023/03/08 00:29:38;;;;;;;3.27;2.43;;;0.20;1.00;;;;;;8363514;28;20213;-70
2023/03/08 00:33:39;;;;;;;4.30;2.70;;;0.20;20.40;;;;;;8370137;28;20185;-71
2023/03/08 00:37:40;;;;;;;2.70;1.83;;;0.10;99.90;;;;;;8368798;28;20216;-69
2023/03/08 00:41:41;;;;;;;3.53;2.90;;;0.10;99.90;;;;;;8382383;28;20207;-70
2023/03/08 00:45:42;;;;;;;3.10;2.37;;;0.10;99.90;;;;;;8362770;28;20242;-69
2023/03/08 00:49:43;;;;;;;4.73;3.20;;;0.10;99.90;;;;;;8369057;28;20196;-71
2023/03/08 00:53:44;;;;;;;6.90;3.27;;;0.10;99.90;;;;;;8364054;28;20190;-71
2023/03/08 00:57:45;;;;;;;4.03;3.00;;;0.10;99.90;;;;;;8365122;28;20221;-71
2023/03/08 01:01:46;;;;;;;3.80;2.20;;;0.10;99.90;;;;;;8367853;28;20594;-70
2023/03/08 01:05:54;;;;;;;4.30;3.03;;;0.10;99.90;;;;;;8365487;28;20224;-70
2023/03/08 01:09:55;;;;;;;3.33;2.67;;;0.10;99.90;;;;;;8365723;28;20200;-70
2023/03/08 01:13:56;;;;;;;4.17;2.20;;;0.00;99.90;;;;;;8363769;28;20190;-69
2023/03/08 01:17:56;;;;;;;3.17;2.13;;;0.00;99.90;;;;;;8367208;28;20196;-68
2023/03/08 01:21:57;;;;;;;2.77;1.80;;;0.00;99.90;;;;;;8363646;28;20308;-70
2023/03/08 01:26:07;;;;;;;2.43;1.70;;;0.00;99.90;;;;;;8365040;28;20218;-70
2023/03/08 01:30:08;;;;;;;2.37;1.73;;;0.00;99.90;;;;;;8362745;28;20272;-70
2023/03/08 01:34:09;;;;;;;2.23;1.80;;;0.00;99.90;;;;;;8364965;28;20194;-70
2023/03/08 01:38:10;;;;;;;2.17;1.70;;;0.00;99.90;;;;;;8366916;28;20213;-70
2023/03/08 01:42:11;;;;;;;2.63;1.73;;;0.00;99.90;;;;;;8365304;28;20317;-70
2023/03/08 01:46:26;;;;;;;4.17;1.77;;;0.00;99.90;;;;;;8363581;28;20213;-70
2023/03/08 01:50:27;;;;;;;1.70;1.40;;;0.00;99.90;;;;;;8367220;28;20270;-68
2023/03/08 01:54:40;;;;;;;2.23;1.80;;;0.00;99.90;;;;;;8375207;28;20189;-70
2023/03/08 01:58:43;;;;;;;5.37;1.67;;;0.00;99.90;;;;;;8381490;28;20201;-69
2023/03/08 02:02:59;;;;;;;2.63;1.53;;;0.00;99.90;;;;;;8362660;28;20193;-70
2023/03/08 02:07:00;;;;;;;2.40;1.40;;;0.00;99.90;;;;;;8365540;28;20210;-69
2023/03/08 02:11:01;;;;;;;3.17;1.63;;;0.00;99.90;;;;;;8364219;28;20215;-70
2023/03/08 02:15:04;;;;;;;1.90;1.20;;;0.00;99.90;;;;;;8361609;28;20216;-68
2023/03/08 02:19:13;;;;;;;1.53;1.20;;;0.00;99.90;;;;;;8359530;28;20204;-70
2023/03/08 02:23:16;;;;;;;2.00;1.50;;;0.10;99.90;;;;;;8359401;28;20219;-70
2023/03/08 02:27:23;;;;;;;3.70;1.60;;;0.10;99.90;;;;;;8359341;28;20225;-69
2023/03/08 02:31:24;;;;;;;2.80;1.20;;;0.00;99.90;;;;;;8365817;28;20189;-69
2023/03/08 02:35:25;;;;;;;1.13;0.93;;;0.00;99.90;;;;;;8362613;28;20304;-67
2023/03/08 02:39:26;;;;;;;1.73;0.93;;;-0.10;99.90;;;;;;8365519;28;20308;-67
2023/03/08 02:43:27;;;;;;;3.90;1.27;;;-0.10;99.90;;;;;;8364882;28;20196;-69
2023/03/08 02:47:27;;;;;;;3.07;1.23;;;-0.10;99.90;;;;;;8365376;28;20220;-69
2023/03/08 02:51:28;;;;;;;2.93;1.33;;;-0.10;99.90;;;;;;8370352;28;20256;-67
2023/03/08 02:55:29;;;;;;;2.67;1.10;;;-0.10;99.90;;;;;;8363660;28;20510;-68
2023/03/08 02:59:30;;;;;;;4.30;1.63;;;-0.20;99.90;;;;;;8365901;28;20193;-68
2023/03/08 03:03:31;;;;;;;2.30;1.57;;;-0.10;99.90;;;;;;8380147;28;20194;-69
2023/03/08 03:07:35;;;;;;;2.60;1.10;;;-0.10;99.90;;;;;;8364373;28;20216;-69
2023/03/08 03:11:35;;;;;;;2.53;1.60;;;-0.10;99.90;;;;;;8366289;28;20190;-69
2023/03/08 03:15:38;;;;;;;3.33;1.60;;;-0.10;99.90;;;;;;8365581;28;20258;-69
2023/03/08 03:19:39;;;;;;;3.10;1.73;;;-0.10;99.90;;;;;;8365425;28;20299;-68
2023/03/08 03:23:40;;;;;;;3.10;1.13;;;-0.10;99.90;;;;;;8365381;28;20212;-69
2023/03/08 03:27:41;;;;;;;4.27;1.63;;;-0.10;99.90;;;;;;8364867;28;20217;-67
2023/03/08 03:31:42;;;;;;;2.80;1.80;;;0.00;99.90;;;;;;8369908;28;20646;-70
2023/03/08 03:35:43;;;;;;;2.37;1.47;;;0.00;99.90;;;;;;8363617;28;20213;-68
2023/03/08 03:39:44;;;;;;;4.00;1.40;;;0.00;99.90;;;;;;8366076;28;20233;-67
2023/03/08 03:43:45;;;;;;;2.03;1.43;;;0.00;99.90;;;;;;8365440;28;20555;-69
2023/03/08 03:47:46;;;;;;;2.90;1.93;;;0.00;99.90;;;;;;8359888;28;20216;-69
2023/03/08 03:51:47;;;;;;;3.83;1.90;;;-0.10;99.90;;;;;;8366515;28;20201;-68
2023/03/08 03:55:48;;;;;;;2.83;1.73;;;-0.10;99.90;;;;;;8366446;28;20292;-67
2023/03/08 03:59:49;;;;;;;3.67;2.50;;;-0.10;99.90;;;;;;8365820;28;20200;-69
2023/03/08 04:03:50;;;;;;;3.90;2.30;;;-0.10;99.90;;;;;;8364082;28;20193;-69
2023/03/08 04:07:51;;;;;;;3.30;2.63;;;-0.10;99.90;;;;;;8368074;28;20217;-68
2023/03/08 04:11:52;;;;;;;2.93;2.53;;;-0.10;99.90;;;;;;8364769;28;20486;-68
2023/03/08 04:15:53;;;;;;;5.53;3.03;;;-0.10;99.90;;;;;;8366846;28;20189;-68
2023/03/08 04:19:54;;;;;;;5.47;3.10;;;-0.10;99.90;;;;;;8368325;28;20185;-69
2023/03/08 04:23:55;;;;;;;4.73;3.40;;;-0.10;99.90;;;;;;8369818;28;20194;-68
2023/03/08 04:27:56;;;;;;;4.47;2.97;;;-0.20;99.90;;;;;;8378574;28;20409;-68
2023/03/08 04:31:59;;;;;;;6.00;3.37;;;-0.20;99.90;;;;;;8366149;28;20933;-68
2023/03/08 04:35:59;;;;;;;5.37;2.90;;;-0.30;99.90;;;;;;8362861;28;20241;-66
2023/03/08 04:40:00;;;;;;;4.93;3.90;;;-0.30;99.90;;;;;;8365966;28;20180;-69
2023/03/08 04:44:01;;;;;;;5.50;3.30;;;-0.30;99.90;;;;;;8368634;28;20285;-69
2023/03/08 04:48:02;;;;;;;6.43;3.33;;;-0.30;99.90;;;;;;8367992;28;20223;-69
2023/03/08 04:52:03;;;;;;;6.60;3.23;;;-0.30;99.90;;;;;;8362983;28;20186;-69
2023/03/08 04:56:06;;;;;;;6.00;3.40;;;-0.30;99.90;;;;;;8362692;28;20243;-69
2023/03/08 05:00:07;;;;;;;4.63;3.23;;;-0.30;99.90;;;;;;8365726;28;20185;-69
2023/03/08 05:04:11;;;;;;;5.00;3.47;;;-0.30;99.90;;;;;;8365698;28;20180;-68
2023/03/08 05:08:12;;;;;;;4.20;3.20;;;-0.30;99.90;;;;;;8366304;28;20213;-68
2023/03/08 05:12:13;;;;;;;4.63;3.53;;;-0.20;99.90;;;;;;8366189;28;20236;-69
2023/03/08 05:16:14;;;;;;;4.80;3.50;;;-0.20;99.90;;;;;;8367409;28;20308;-68
2023/03/08 05:20:15;;;;;;;6.87;3.57;;;-0.20;99.90;;;;;;8365870;28;20283;-68
2023/03/08 05:24:17;;;;;;;5.33;3.40;;;-0.20;99.90;;;;;;8366080;28;20197;-68
2023/03/08 05:28:17;;;;;;;5.40;3.17;;;-0.20;99.90;;;;;;8369091;28;20212;-68
2023/03/08 05:32:18;;;;;;;4.70;2.93;;;-0.20;99.90;;;;;;8364919;28;20212;-68
2023/03/08 05:36:19;;;;;;;5.83;3.07;;;-0.20;99.90;;;;;;8360026;28;20205;-69
2023/03/08 05:40:20;;;;;;;4.97;2.87;;;-0.20;99.90;;;;;;8366127;28;20264;-73
2023/03/08 05:44:21;;;;;;;5.53;3.30;;;-0.20;99.90;;;;;;8362373;28;20207;-73
2023/03/08 05:48:22;;;;;;;3.20;2.33;;;-0.10;99.90;;;;;;8361343;28;20251;-74
2023/03/08 05:52:23;;;;;;;3.93;2.80;;;-0.20;99.90;;;;;;8365799;28;20189;-73
2023/03/08 05:56:24;;;;;;;4.53;3.03;;;-0.30;99.90;;;;;;8362016;28;20470;-73
2023/03/08 06:00:25;;;;;;;4.10;2.87;;;-0.30;99.90;;;;;;8367113;28;20312;-73
2023/03/08 06:04:26;;;;;;;2.80;2.37;;;-0.30;99.90;;;;;;8358590;28;20197;-73
2023/03/08 06:08:27;;;;;;;6.03;2.93;;;-0.20;99.90;;;;;;8365301;28;20205;-73
2023/03/08 06:12:28;;;;;;;4.57;2.67;;;0.10;99.90;;;;;;8366684;28;20185;-74
2023/03/08 06:16:28;;;;;;;4.07;2.97;;;0.40;99.90;;;;;;8364322;28;20198;-73
2023/03/08 06:20:29;;;;;;;6.57;2.47;;;0.60;99.90;;;;;;8365263;28;20628;-74
2023/03/08 06:24:30;;;;;;;4.47;2.97;;;0.70;99.90;;;;;;8363703;28;20222;-72
2023/03/08 06:28:31;;;;;;;4.70;2.67;;;0.70;99.90;;;;;;8362988;28;20225;-72
2023/03/08 06:32:32;;;;;;;4.37;2.50;;;0.60;99.90;;;;;;8362142;28;20428;-72
2023/03/08 06:36:33;;;;;;;4.73;3.17;;;0.50;99.90;;;;;;8362200;28;20305;-73
2023/03/08 06:40:34;;;;;;;4.40;2.60;;;0.40;99.90;;;;;;8363532;28;20193;-73
2023/03/08 06:44:34;;;;;;;5.03;2.60;;;0.50;99.90;;;;;;8360726;28;20244;-72
2023/03/08 06:48:36;;;;;;;6.70;3.03;;;0.60;99.90;;;;;;8362737;28;20223;-72
2023/03/08 06:52:37;;;;;;;5.30;2.93;;;0.70;99.90;;;;;;8361310;28;20460;-72
2023/03/08 06:56:38;;;;;;;5.77;3.47;;;1.10;99.90;;;;;;8361095;28;20198;-73
2023/03/08 07:00:38;;;;;;;5.40;3.73;;;1.50;99.90;;;;;;8360519;28;20201;-71
2023/03/08 07:04:39;;;;;;;5.97;4.93;;;1.60;99.90;;;;;;8359002;28;20198;-72
2023/03/08 07:08:40;;;;;;;8.67;4.73;;;1.80;99.90;;;;;;8367597;28;20236;-71
2023/03/08 07:12:45;;;;;;;7.67;4.73;;;2.20;99.90;;;;;;8359249;28;20224;-71
2023/03/08 07:16:47;;;;;;;6.53;5.13;;;2.50;99.90;;;;;;8361529;28;20225;-72
2023/03/08 07:20:54;;;;;;;6.40;4.33;;;2.70;99.90;;;;;;8375791;28;20253;-74
2023/03/08 07:24:54;;;;;;;6.20;4.20;;;2.80;1.00;;;;;;8377199;28;20190;-72
2023/03/08 07:28:56;;;;;;;7.40;4.73;;;2.80;99.90;;;;;;8368077;28;20341;-72
2023/03/08 07:32:57;;;;;;;8.53;4.30;;;2.80;1.00;;;;;;8368941;28;20180;-73
2023/03/08 07:36:58;;;;;;;7.17;4.57;;;2.90;99.90;;;;;;8368115;28;20320;-72
2023/03/08 07:40:59;;;;;;;6.00;4.43;;;2.90;99.90;;;;;;8365244;28;20188;-72
2023/03/08 07:44:59;;;;;;;5.90;4.13;;;3.00;99.90;;;;;;8366327;28;20248;-73
2023/03/08 07:49:00;;;;;;;7.33;4.17;;;3.10;99.90;;;;;;8362975;28;20209;-72
2023/03/08 07:53:03;;;;;;;7.83;3.97;;;3.00;99.90;;;;;;8366846;28;20211;-73
2023/03/08 07:57:04;;;;;;;6.47;3.70;;;3.00;99.90;;;;;;8366443;28;20234;-74
2023/03/08 08:01:12;;;;;;;5.20;3.07;;;2.90;99.90;;;;;;8366361;28;20543;-73
2023/03/08 08:05:13;;;;;;;6.20;3.37;;;3.20;99.90;;;;;;8362674;28;20186;-73
2023/03/08 08:09:16;;;;;;;5.50;3.07;;;3.50;99.90;;;;;;8362082;28;20254;-72
2023/03/08 08:13:17;;;;;;;4.83;2.93;;;3.40;99.90;;;;;;8368319;28;20190;-73
2023/03/08 08:17:21;;;;;;;5.30;2.60;;;3.50;99.90;;;;;;8369557;28;20270;-72
2023/03/08 08:21:22;;;;;;;5.70;3.27;;;3.50;99.90;;;;;;8367643;28;20192;-72
2023/03/08 08:25:23;;;;;;;4.53;2.70;;;3.50;99.90;;;;;;8366276;28;20186;-73
2023/03/08 08:29:24;;;;;;;3.57;2.43;;;3.60;99.90;;;;;;8367266;28;20217;-73
2023/03/08 08:33:26;;;;;;;4.43;3.17;;;3.60;99.90;;;;;;8366121;28;20181;-73
2023/03/08 08:37:29;;;;;;;2.97;2.07;;;3.80;99.90;;;;;;8363488;28;20210;-72
2023/03/08 08:41:31;;;;;;;3.97;2.40;;;3.80;99.90;;;;;;8364953;28;20177;-72
2023/03/08 08:45:31;;;;;;;4.07;2.40;;;3.80;99.90;;;;;;8363081;28;20198;-71
2023/03/08 08:49:32;;;;;;;4.13;2.50;;;3.60;99.90;;;;;;8361636;28;20296;-71
2023/03/08 08:53:33;;;;;;;3.07;2.20;;;3.80;99.90;;;;;;8368463;28;20212;-72
2023/03/08 08:57:34;;;;;;;4.03;2.50;;;3.70;99.90;;;;;;8368128;28;20238;-71
2023/03/08 09:01:38;;;;;;;4.43;2.30;;;3.60;99.90;;;;;;8370125;28;20489;-70
2023/03/08 09:05:41;;;;;;;4.33;2.10;;;4.10;99.90;;;;;;8362509;28;20182;-70
2023/03/08 09:09:42;;;;;;;3.67;2.40;;;4.70;99.90;;;;;;8362013;28;20217;-70
2023/03/08 09:13:43;;;;;;;2.93;1.90;;;5.10;55.10;;;;;;8362930;28;20185;-71
2023/03/08 09:17:44;;;;;;;4.83;1.80;;;5.40;6.50;;;;;;8368366;28;20197;-73
2023/03/08 09:21:45;;;;;;;3.90;2.17;;;5.50;1.00;;;;;;8359959;28;20197;-72
2023/03/08 09:25:55;;;;;;;5.40;2.40;;;5.60;1.00;;;;;;8362878;28;20189;-73
2023/03/08 09:29:56;;;;;;;4.43;2.10;;;5.60;1.00;;;;;;8360594;28;20236;-72
2023/03/08 09:33:58;;;;;;;2.47;1.80;;;5.80;1.00;;;;;;8369284;28;20213;-71
2023/03/08 09:38:00;;;;;;;3.17;1.90;;;6.20;1.00;;;;;;8370209;28;20212;-72
2023/03/08 09:42:03;;;;;;;3.37;2.10;;;6.50;1.00;;;;;;8366166;28;20197;-72
2023/03/08 09:46:04;;;;;;;4.43;2.27;;;6.70;1.00;;;;;;8368184;28;20222;-74
2023/03/08 09:50:11;;;;;;;3.83;2.50;;;6.60;1.00;;;;;;8352834;28;20193;-74
2023/03/08 09:54:17;;;;;;;4.13;2.40;;;6.60;1.00;;;;;;8365142;28;20213;-74
2023/03/08 09:58:59;;;;;;;3.97;2.80;;;6.90;1.00;;;;;;8376391;28;20189;-74
2023/03/08 10:03:31;;;;;;;5.37;2.73;;;7.20;1.00;;;;;;8352479;28;20201;-73
2023/03/08 10:07:35;;;;;;;4.40;2.10;;;7.20;1.00;;;;;;8377637;28;20271;-73
2023/03/08 10:11:48;;;;;;;3.73;2.20;;;7.60;1.00;;;;;;8367657;28;20188;-74
2023/03/08 10:15:51;;;;;;;2.50;1.73;;;7.80;1.00;;;;;;8363176;28;20193;-74
2023/03/08 10:20:08;;;;;;;2.70;1.97;;;7.90;1.00;;;;;;8361373;28;20185;-74
2023/03/08 10:24:18;;;;;;;3.87;2.17;;;7.80;1.00;;;;;;8359618;28;20214;-73
2023/03/08 10:28:22;;;;;;;5.63;2.50;;;7.90;1.00;;;;;;8363435;28;20215;-73
2023/03/08 10:32:24;;;;;;;3.90;2.40;;;7.60;1.00;;;;;;8362835;28;20594;-73
2023/03/08 10:36:25;;;;;;;5.70;3.33;;;7.20;1.00;;;;;;8363520;28;20210;-73
2023/03/08 10:40:26;;;;;;;4.30;2.90;;;6.90;1.00;;;;;;8359429;28;20185;-72
2023/03/08 10:44:41;;;;;;;4.87;2.67;;;6.80;1.00;;;;;;8356900;28;20197;-73
2023/03/08 10:48:42;;;;;;;4.97;2.83;;;6.80;1.00;;;;;;8360806;28;20201;-72
2023/03/08 10:52:45;;;;;;;5.93;3.00;;;6.90;1.00;;;;;;8358706;28;20235;-73
2023/03/08 10:56:59;;;;;;;4.33;2.93;;;6.90;1.00;;;;;;8359891;28;20174;-72
2023/03/08 11:01:05;;;;;;;4.57;2.80;;;6.90;1.00;;;;;;8365682;28;20186;-72
2023/03/08 11:05:20;;;;;;;3.93;2.73;;;6.90;1.00;;;;;;8368729;28;20189;-72
2023/03/08 11:09:32;;;;;;;3.20;2.60;;;6.80;1.00;;;;;;8373818;28;20213;-73
2023/03/08 11:13:45;;;;;;;2.60;2.27;;;7.00;1.00;;;;;;8370689;28;20175;-73
2023/03/08 11:18:15;;;;;;;5.30;3.33;;;7.20;1.00;;;;;;8378163;28;20185;-74
2023/03/08 11:22:37;;;;;;;3.90;2.83;;;7.30;1.00;;;;;;8374374;28;20177;-73
2023/03/08 11:26:44;;;;;;;5.70;3.70;;;7.20;1.00;;;;;;8376625;28;20301;-73
2023/03/08 11:31:03;;;;;;;4.33;3.20;;;7.10;1.00;;;;;;8372882;28;20196;-73
2023/03/08 11:35:24;;;;;;;8.00;5.50;;;7.10;1.00;;;;;;8376946;28;20204;-73
2023/03/08 11:39:34;;;;;;;5.93;4.90;;;6.90;1.00;;;;;;8368777;28;20300;-73
2023/03/08 11:43:48;;;;;;;7.27;4.83;;;6.90;1.00;;;;;;8367040;28;20198;-72
2023/03/08 11:48:18;;;;;;;7.33;4.97;;;6.90;1.00;;;;;;8367564;28;20228;-73
2023/03/08 11:52:49;;;;;;;7.83;5.53;;;6.70;1.00;;;;;;8373781;28;20189;-73
2023/03/08 11:56:55;;;;;;;7.50;5.40;;;6.30;1.00;;;;;;8365527;28;20300;-72
2023/03/08 12:01:01;;;;;;;7.20;5.23;;;6.00;1.00;;;;;;8367457;28;20330;-72
2023/03/08 12:05:10;;;;;;;39.10;17.70;;;5.70;12.00;;;;;;8370892;28;20174;-73
2023/03/08 12:09:29;;;;;;;132.00;46.97;;;5.40;49.10;;;;;;8365477;28;20210;-73
2023/03/08 12:13:51;;;;;;;15.70;8.30;;;5.30;63.50;;;;;;8382029;28;20288;-73
2023/03/08 12:18:03;;;;;;;11.40;6.50;;;5.10;99.90;;;;;;8365236;28;20185;-71
2023/03/08 12:22:37;;;;;;;44.63;18.20;;;5.00;99.90;;;;;;8367188;28;20577;-72
2023/03/08 12:26:48;;;;;;;45.27;16.57;;;5.10;99.90;;;;;;8366635;28;20315;-72
2023/03/08 12:30:52;;;;;;;21.43;10.57;;;5.10;99.90;;;;;;8362463;28;20221;-72
2023/03/08 12:35:03;;;;;;;21.10;9.40;;;5.20;99.90;;;;;;8363552;28;20213;-72
2023/03/08 12:39:08;;;;;;;19.70;9.43;;;5.50;99.90;;;;;;8360398;28;20193;-72
2023/03/08 12:43:20;;;;;;;11.30;6.40;;;5.70;99.90;;;;;;8362140;28;20201;-71
2023/03/08 12:47:22;;;;;;;25.13;14.20;;;5.60;99.90;;;;;;8374375;28;20207;-72
2023/03/08 12:51:33;;;;;;;25.33;12.70;;;5.80;99.90;;;;;;8345240;28;20527;-72
2023/03/08 12:55:34;;;;;;;31.67;15.20;;;5.90;99.90;;;;;;8370028;28;20178;-73
2023/03/08 12:59:38;;;;;;;14.57;8.60;;;6.10;99.90;;;;;;8362757;28;20188;-73
2023/03/08 13:03:40;;;;;;;34.03;17.00;;;6.40;62.40;;;;;;8367424;28;20189;-73
2023/03/08 13:07:59;;;;;;;17.90;10.60;;;6.60;76.80;;;;;;8362589;28;20209;-73
2023/03/08 13:12:22;;;;;;;14.63;9.33;;;6.60;75.60;;;;;;8362886;28;20264;-72
2023/03/08 13:16:36;;;;;;;20.27;13.30;;;6.30;72.50;;;;;;8358560;28;20212;-73
2023/03/08 13:21:01;;;;;;;11.07;8.07;;;6.10;99.90;;;;;;8365225;28;20182;-73
2023/03/08 13:25:19;;;;;;;17.10;10.37;;;5.80;99.90;;;;;;8362125;28;20185;-72
2023/03/08 13:29:20;;;;;;;19.93;12.27;;;5.80;99.90;;;;;;8368360;28;20198;-72
2023/03/08 13:33:25;;;;;;;17.30;12.07;;;5.80;99.90;;;;;;8361634;28;20187;-72
2023/03/08 13:37:29;;;;;;;22.37;14.53;;;5.70;99.90;;;;;;8372360;28;20247;-73
2023/03/08 13:41:41;;;;;;;18.07;12.10;;;5.60;99.90;;;;;;8365699;28;20293;-73
2023/03/08 13:45:50;;;;;;;19.67;11.40;;;5.40;99.90;;;;;;8363653;28;20189;-74
2023/03/08 13:49:54;;;;;;;24.83;15.27;;;5.30;99.90;;;;;;8360599;28;20305;-74
2023/03/08 13:53:55;;;;;;;16.47;14.20;;;5.10;99.90;;;;;;8366520;28;20181;-73
2023/03/08 13:57:56;;;;;;;21.17;15.17;;;5.00;99.90;;;;;;8374815;28;20194;-72
2023/03/08 14:01:58;;;;;;;26.50;18.77;;;4.90;99.90;;;;;;8362441;28;20182;-72
2023/03/08 14:05:59;;;;;;;20.97;15.07;;;4.70;99.90;;;;;;8361660;28;20200;-72
2023/03/08 14:10:00;;;;;;;24.27;16.80;;;4.50;99.90;;;;;;8363770;28;20209;-73
2023/03/08 14:14:03;;;;;;;22.40;15.83;;;4.40;1.00;;;;;;8359866;28;20220;-72
2023/03/08 14:18:07;;;;;;;24.03;16.97;;;4.30;1.00;;;;;;8363087;28;20208;-73
2023/03/08 14:22:10;;;;;;;19.47;15.00;;;4.30;1.00;;;;;;8361112;28;20185;-73
2023/03/08 14:26:26;;;;;;;21.53;16.30;;;4.30;5.10;;;;;;8360108;28;20190;-73
2023/03/08 14:30:30;;;;;;;19.17;15.40;;;4.30;1.00;;;;;;8361643;28;20408;-73
2023/03/08 14:34:45;;;;;;;21.50;16.43;;;4.10;46.70;;;;;;8362244;28;20529;-73
2023/03/08 14:38:48;;;;;;;18.80;14.80;;;4.10;22.30;;;;;;8363721;28;20236;-72
2023/03/08 14:42:53;;;;;;;21.37;15.37;;;4.00;41.60;;;;;;8364768;28;20197;-72
2023/03/08 14:46:57;;;;;;;20.87;15.87;;;3.90;99.90;;;;;;8372800;28;20198;-73
2023/03/08 14:51:03;;;;;;;19.03;14.50;;;3.80;35.50;;;;;;8364820;28;20178;-72
2023/03/08 14:55:20;;;;;;;21.63;16.90;;;3.70;99.90;;;;;;8366659;28;20188;-72
2023/03/08 14:59:22;;;;;;;18.33;15.67;;;3.80;99.90;;;;;;8371067;28;20186;-73
2023/03/08 15:03:24;;;;;;;17.10;13.80;;;3.80;99.90;;;;;;8368276;28;20185;-71
2023/03/08 15:07:30;;;;;;;22.87;17.80;;;3.80;99.90;;;;;;8365818;28;20213;-72
2023/03/08 15:11:31;;;;;;;25.43;18.73;;;3.90;99.90;;;;;;8380336;28;20279;-72
2023/03/08 15:15:32;;;;;;;21.10;16.13;;;3.90;99.90;;;;;;8368189;28;20242;-71
2023/03/08 15:19:33;;;;;;;25.47;20.20;;;3.90;99.90;;;;;;8370019;28;20185;-72
2023/03/08 15:23:36;;;;;;;20.50;16.40;;;3.90;99.90;;;;;;8365216;28;20190;-73
2023/03/08 15:27:37;;;;;;;29.30;20.00;;;3.90;99.90;;;;;;8366440;28;20292;-72
2023/03/08 15:31:38;;;;;;;26.03;18.93;;;3.90;99.90;;;;;;8369768;28;20196;-71
2023/03/08 15:35:40;;;;;;;24.93;17.43;;;3.90;99.90;;;;;;8369176;28;20307;-73
2023/03/08 15:39:41;;;;;;;25.67;20.97;;;4.00;99.90;;;;;;8372415;28;20189;-73
2023/03/08 15:43:42;;;;;;;26.83;18.70;;;4.00;99.90;;;;;;8366632;28;20311;-74
2023/03/08 15:47:43;;;;;;;38.87;21.90;;;4.00;99.90;;;;;;8363783;28;20205;-72
2023/03/08 15:51:44;;;;;;;51.47;27.00;;;4.00;99.90;;;;;;8374822;28;20181;-73
2023/03/08 15:55:45;;;;;;;39.83;25.23;;;3.90;99.90;;;;;;8360676;28;20185;-73
2023/03/08 15:59:46;;;;;;;36.60;23.47;;;3.80;99.90;;;;;;8366915;28;20189;-73
2023/03/08 16:03:47;;;;;;;37.60;23.47;;;3.80;1.00;;;;;;8364400;28;20182;-71
2023/03/08 16:07:53;;;;;;;57.70;36.60;;;3.80;1.00;;;;;;8361773;28;20215;-72
2023/03/08 16:11:54;;;;;;;43.70;27.33;;;3.70;1.00;;;;;;8369205;28;20178;-72
2023/03/08 16:16:01;;;;;;;82.80;39.50;;;3.60;99.90;;;;;;8365430;28;20181;-73
2023/03/08 16:20:05;;;;;;;70.30;36.50;;;3.60;1.00;;;;;;8372196;28;20201;-73
2023/03/08 16:24:06;;;;;;;153.30;69.13;;;3.50;99.90;;;;;;8363372;28;20577;-73
2023/03/08 16:28:07;;;;;;;78.93;39.10;;;3.40;1.00;;;;;;8366389;28;20208;-73
2023/03/08 16:32:17;;;;;;;85.27;47.23;;;3.50;8.30;;;;;;8369137;28;20188;-71
2023/03/08 16:36:18;;;;;;;82.77;41.07;;;3.40;99.90;;;;;;8362317;28;20202;-72
2023/03/08 16:40:19;;;;;;;74.77;42.63;;;3.30;1.00;;;;;;8372441;28;20374;-72
2023/03/08 16:44:26;;;;;;;51.23;32.87;;;3.30;99.90;;;;;;8364862;28;20219;-73
2023/03/08 16:48:28;;;;;;;44.30;25.37;;;3.20;99.90;;;;;;8365004;28;20247;-73
2023/03/08 16:52:29;;;;;;;104.13;43.30;;;3.20;99.90;;;;;;8366764;28;20293;-73
2023/03/08 16:56:30;;;;;;;181.20;75.37;;;3.20;1.00;;;;;;8369677;28;20185;-73
2023/03/08 17:00:31;;;;;;;156.53;76.93;;;3.20;1.00;;;;;;8367051;28;20197;-73
2023/03/08 17:04:31;;;;;;;86.43;43.80;;;3.10;99.90;;;;;;8367817;28;20255;-72
2023/03/08 17:08:32;;;;;;;57.37;34.00;;;3.10;1.00;;;;;;8366871;28;20420;-74
2023/03/08 17:12:33;;;;;;;54.27;30.13;;;3.10;97.40;;;;;;8371150;28;20185;-73
2023/03/08 17:16:35;;;;;;;50.03;29.57;;;3.10;99.90;;;;;;8379453;28;20190;-70
2023/03/08 17:20:40;;;;;;;42.40;30.03;;;3.10;99.90;;;;;;8368550;28;20238;-72
2023/03/08 17:24:42;;;;;;;40.73;24.87;;;3.00;99.90;;;;;;8361661;28;20192;-73
2023/03/08 17:28:43;;;;;;;44.53;29.50;;;3.00;99.90;;;;;;8369365;28;20456;-71
2023/03/08 17:32:44;;;;;;;49.97;34.33;;;3.00;1.00;;;;;;8366439;28;20283;-71
2023/03/08 17:36:47;;;;;;;50.47;32.47;;;2.90;1.00;;;;;;8372454;28;20204;-70
2023/03/08 17:40:48;;;;;;;40.17;26.43;;;2.90;99.90;;;;;;8375197;28;20788;-72
2023/03/08 17:44:49;;;;;;;75.23;54.17;;;2.90;99.90;;;;;;8371922;28;20215;-70
2023/03/08 17:48:51;;;;;;;62.00;37.93;;;2.90;1.00;;;;;;8363008;28;20302;-69
2023/03/08 17:52:54;;;;;;;139.17;67.43;;;2.90;1.00;;;;;;8367248;28;20202;-69
2023/03/08 17:56:55;;;;;;;46.93;27.80;;;2.90;90.00;;;;;;8365724;28;20196;-72
2023/03/08 18:00:56;;;;;;;79.43;48.70;;;2.90;99.90;;;;;;8368025;28;20243;-71
2023/03/08 18:04:56;;;;;;;84.53;52.37;;;2.90;99.90;;;;;;8372736;28;20212;-71
2023/03/08 18:08:59;;;;;;;154.63;64.80;;;2.90;99.90;;;;;;8373188;28;20221;-71
2023/03/08 18:13:00;;;;;;;153.83;60.10;;;2.90;99.90;;;;;;8364872;28;20230;-70
2023/03/08 18:17:01;;;;;;;141.43;60.60;;;2.90;99.90;;;;;;8368664;28;20274;-71
2023/03/08 18:21:03;;;;;;;131.23;58.30;;;2.80;99.90;;;;;;8367143;28;20196;-69
2023/03/08 18:25:04;;;;;;;166.20;82.30;;;2.90;99.90;;;;;;8370196;28;20201;-71
2023/03/08 18:29:05;;;;;;;87.27;49.03;;;2.90;99.90;;;;;;8364135;28;20212;-72
2023/03/08 18:33:06;;;;;;;80.33;41.27;;;2.90;99.90;;;;;;8368254;28;20188;-72
2023/03/08 18:37:07;;;;;;;105.60;68.47;;;2.90;99.90;;;;;;8368660;28;20253;-72
2023/03/08 18:41:15;;;;;;;86.07;59.73;;;2.90;99.90;;;;;;8370409;28;20315;-72
2023/03/08 18:45:17;;;;;;;76.17;49.37;;;2.90;99.90;;;;;;8362944;28;20247;-70
2023/03/08 18:49:18;;;;;;;196.77;82.30;;;2.90;99.90;;;;;;8369656;28;20233;-73
2023/03/08 18:53:19;;;;;;;54.77;34.20;;;2.90;99.90;;;;;;8368019;28;20181;-72
2023/03/08 18:57:20;;;;;;;69.00;41.40;;;2.90;99.90;;;;;;8365050;28;20203;-72
2023/03/08 19:01:21;;;;;;;107.97;50.20;;;2.90;99.90;;;;;;8366056;28;20193;-71
2023/03/08 19:05:22;;;;;;;64.50;36.77;;;2.90;99.90;;;;;;8372189;28;20200;-71
2023/03/08 19:09:23;;;;;;;70.77;38.17;;;2.90;99.90;;;;;;8367673;28;20205;-71
2023/03/08 19:13:24;;;;;;;63.00;36.77;;;2.90;99.90;;;;;;8370751;28;20177;-70
2023/03/08 19:17:25;;;;;;;71.57;39.60;;;2.90;99.90;;;;;;8366345;28;20217;-71
2023/03/08 19:21:31;;;;;;;59.30;37.90;;;2.90;99.90;;;;;;8365944;28;20265;-68
2023/03/08 19:25:33;;;;;;;90.67;46.60;;;2.90;99.90;;;;;;8371105;28;20184;-71
2023/03/08 19:29:34;;;;;;;77.47;43.07;;;2.90;99.90;;;;;;8381666;28;20271;-69
2023/03/08 19:33:35;;;;;;;87.77;48.03;;;2.90;99.90;;;;;;8372931;28;20181;-69
2023/03/08 19:37:36;;;;;;;86.17;44.70;;;3.00;99.90;;;;;;8374088;28;20221;-71
2023/03/08 19:41:37;;;;;;;59.97;36.20;;;2.90;99.90;;;;;;8386514;28;20222;-72
2023/03/08 19:45:37;;;;;;;65.50;38.73;;;2.90;99.90;;;;;;8384500;28;20189;-71
2023/03/08 19:49:39;;;;;;;52.53;33.73;;;2.90;99.90;;;;;;8368558;28;20322;-70
2023/03/08 19:53:41;;;;;;;56.20;36.27;;;2.90;99.90;;;;;;8365737;28;20626;-72
2023/03/08 19:57:42;;;;;;;71.70;43.60;;;2.90;99.90;;;;;;8367695;28;20239;-72
2023/03/08 20:01:42;;;;;;;58.97;38.10;;;2.90;99.90;;;;;;8365845;28;20221;-72
2023/03/08 20:05:46;;;;;;;59.67;38.70;;;2.90;99.90;;;;;;8366545;28;20201;-64
2023/03/08 20:09:51;;;;;;;73.27;44.20;;;2.90;99.90;;;;;;8380353;28;20265;-64
2023/03/08 20:13:52;;;;;;;65.60;38.93;;;2.90;99.90;;;;;;8362864;28;20197;-64
2023/03/08 20:17:53;;;;;;;58.10;34.27;;;2.90;99.90;;;;;;8359249;28;20188;-68
2023/03/08 20:21:53;;;;;;;68.90;39.47;;;2.90;99.90;;;;;;8365273;28;20215;-65
2023/03/08 20:25:54;;;;;;;90.03;48.53;;;2.90;99.90;;;;;;8361826;28;20199;-64
2023/03/08 20:29:55;;;;;;;68.40;40.60;;;2.90;99.90;;;;;;8365434;28;20286;-64
2023/03/08 20:33:56;;;;;;;99.07;52.63;;;2.80;99.90;;;;;;8366420;28;20597;-64
2023/03/08 20:37:57;;;;;;;69.10;41.60;;;2.80;99.90;;;;;;8362445;28;20295;-64
2023/03/08 20:41:58;;;;;;;99.60;55.43;;;2.80;99.90;;;;;;8366000;28;20201;-64
2023/03/08 20:46:04;;;;;;;72.37;43.97;;;2.80;99.90;;;;;;8364941;28;20189;-64
2023/03/08 20:50:06;;;;;;;55.03;33.33;;;2.80;99.90;;;;;;8365680;28;20871;-64
2023/03/08 20:54:07;;;;;;;64.13;39.90;;;2.90;99.90;;;;;;8366119;28;20182;-63
2023/03/08 20:58:08;;;;;;;57.03;33.97;;;2.80;99.90;;;;;;8364802;28;20183;-64
2023/03/08 21:02:11;;;;;;;67.27;38.93;;;2.80;99.90;;;;;;8365609;28;20190;-64
2023/03/08 21:06:15;;;;;;;60.30;33.07;;;2.80;99.90;;;;;;8364994;28;20507;-64
2023/03/08 21:10:16;;;;;;;56.70;31.67;;;2.80;99.90;;;;;;8365536;28;20209;-64